Puvirnituq Airport
CYPX : rendu visible

Aérodrome :











RETROUVEZ-NOUS SUR...

 
LOGIN :

S'inscrire | Disclaimer

   EN    FR    IT 

 









Légende :    VFR   VFR Marginal   IFR   IFR Intensif   IFR Très Intensif
Visi : 
Plafond : 
>= 8 km
>= 3000ft
5 à 8 km
1000 à 3000 ft
1500m à 5 km
500 à 1000 ft
800 à 1500m
200 à 500 ft
< 800m
< 200 ft
Symboles :   Orages  Brouillard  Fortes neiges  Fortes précipitations  Vent > 20 kt






- Altitude de l'aérodrome : 74 ft
- Code IATA : YPX


CYPX - Puvirnituq

DERNIER METAR :
  • 100703Z AUTO 16015KT 5/8SM -SN SCT004 OVC008 M18/M20 A2957 RMK SLP018

METARs EXPIRÉS :
  • 100631Z AUTO 16015KT 3/4SM -SN VV005 M18/M20 A2957 RMK SLP017
  • 100619Z AUTO 16016G21KT 3/4SM -SN FEW002 BKN008 BKN016 M18/M19 A2957 RMK SLP018
  • 100614Z AUTO 17018KT 3/4SM -SN SCT002 BKN006 M18/M20 A2957 RMK SLP017
  • 100601Z AUTO 17018KT 1 1/4SM -SN SCT002 BKN006 M18/M19 A2957 RMK SLP017
  • 100537Z AUTO 16019KT 1 1/4SM -SN FEW004 SCT013 BKN035 M18/M20 A2956 RMK SLP016
  • 100532Z AUTO 16019KT 1 1/2SM -SN FEW004 SCT013 BKN024 BKN035 M18/M19 A2956 RMK SLP015
  • 100528Z AUTO 16018G23KT 1 3/4SM -SN FEW004 BKN023 BKN035 M17/M19 A2957 RMK SLP017
  • 100511Z AUTO 16016G22KT 1 3/4SM -SN FEW006 SCT010 BKN019 OVC035 M17/M19 A2956 RMK SLP016
  • 100457Z AUTO 17012KT 3SM -SN FEW007 BKN017 OVC033 M16/M18 A2957 RMK SLP017
  • 100446Z AUTO 21012G22KT 3/4SM -SN BKN008 OVC015 M15/M17 A2956 RMK SLP015
  • 100435Z AUTO 22016G21KT 1SM -SN FEW005 BKN012 OVC022 M15/M17 A2956 RMK SLP015
  • 100419Z AUTO 21018KT 3/4SM -SN BKN008 BKN016 OVC024 M15/M17 A2956 RMK SLP015
  • 100408Z AUTO 22018KT 1/2SM SN FEW005 BKN010 OVC018 M15/M17 A2956 RMK SLP015

TAF TAF CYPX
Valide du 10 à 06h jusqu'au 10 à 18h UTC


100538Z 1006/1018 16015G25KT 3/4SM -SHSN BLSN SCT006 BKN015 OVC030
TEMPO 1006/1010 3SM -SN SCT015 OVC030
FM101000 13015KT P6SM SCT015 BKN030
TEMPO 1010/1018 3SM -SN BKN015 OVC030
BECMG 1016/1018 08012KT RMK FCST BASED ON AUTO OBS. NXT FCST BY 101200Z



MET'MAP, la Météo Aéronautique d'un coup d'oeil ! - Copyright ORBIFLY Décembre 2007 - Disclaimer

ORBIFLY MET'MAP TEAM :

Programmation & Développement : Alexandra Zaïnal
Sur une idée originale de : Baudouin d'Aumeries
Assistance à la programmation : Marc-Olivier Méhu
Soutien technique & logistique : Manuel Goepfert

Contact : metmap@orbifly.com




SOURCES & CREDITS :

   NOAA       Earth
Advisory